createdAt,value
2023-05-12T00:00:02.989Z,3.50
2023-05-12T00:04:30.267Z,3.00
2023-05-12T00:08:50.181Z,3.53
2023-05-12T00:13:09.049Z,3.00
2023-05-12T00:17:27.998Z,3.50
2023-05-12T00:21:49.177Z,3.70
2023-05-12T00:26:08.672Z,3.15
2023-05-12T00:30:26.804Z,3.27
2023-05-12T00:34:44.601Z,3.30
2023-05-12T00:39:04.788Z,3.38
2023-05-12T00:43:24.285Z,3.10
2023-05-12T00:47:42.159Z,3.30
2023-05-12T00:52:00.782Z,3.17
2023-05-12T00:56:20.500Z,3.30
2023-05-12T01:00:39.185Z,3.58
2023-05-12T01:04:57.589Z,3.40
2023-05-12T01:09:15.434Z,3.20
2023-05-12T01:13:34.725Z,3.13
2023-05-12T01:17:57.668Z,3.08
2023-05-12T01:22:16.233Z,3.42
2023-05-12T01:26:38.617Z,3.33
2023-05-12T01:30:58.366Z,3.20
2023-05-12T01:35:15.915Z,3.15
2023-05-12T01:39:40.061Z,3.30
2023-05-12T01:44:02.720Z,2.80
2023-05-12T01:48:22.374Z,3.38
2023-05-12T01:52:40.827Z,3.20
2023-05-12T01:57:04.785Z,3.33
2023-05-12T02:01:28.829Z,3.38
2023-05-12T02:05:49.957Z,3.17
2023-05-12T02:10:09.504Z,3.37
2023-05-12T02:14:29.335Z,3.40
2023-05-12T02:18:48.548Z,3.10
2023-05-12T02:23:08.665Z,3.30
2023-05-12T02:27:26.335Z,3.28
2023-05-12T02:31:44.853Z,3.50
2023-05-12T02:36:10.667Z,3.30
2023-05-12T02:40:30.252Z,3.20
2023-05-12T02:44:48.106Z,3.22
2023-05-12T02:49:05.858Z,3.40
2023-05-12T02:53:27.057Z,3.67
2023-05-12T02:57:48.391Z,3.67
2023-05-12T03:02:06.731Z,3.33
2023-05-12T03:06:24.176Z,3.83
2023-05-12T03:10:44.528Z,3.78
2023-05-12T03:15:04.820Z,3.75
2023-05-12T03:19:24.690Z,3.88
2023-05-12T03:23:42.628Z,3.93
2023-05-12T03:28:03.572Z,3.80
2023-05-12T03:32:21.749Z,3.72
2023-05-12T03:36:41.078Z,4.50
2023-05-12T03:41:07.555Z,4.40
2023-05-12T03:45:30.054Z,4.28
2023-05-12T03:49:49.695Z,4.33
2023-05-12T03:54:07.463Z,4.43
2023-05-12T03:58:25.810Z,4.80
2023-05-12T04:02:45.403Z,4.55
2023-05-12T04:07:04.655Z,5.03
2023-05-12T04:11:23.630Z,4.70
2023-05-12T04:15:41.250Z,4.47
2023-05-12T04:20:00.688Z,4.80
2023-05-12T04:24:19.932Z,5.00
2023-05-12T04:28:38.715Z,4.78
2023-05-12T04:32:56.103Z,4.90
2023-05-12T04:37:15.472Z,4.88
2023-05-12T04:41:36.385Z,5.55
2023-05-12T04:45:58.599Z,5.40
2023-05-12T04:50:21.347Z,5.70
2023-05-12T04:54:40.249Z,5.28
2023-05-12T04:59:00.196Z,5.07
2023-05-12T05:03:18.353Z,5.60
2023-05-12T05:07:35.988Z,5.63
2023-05-12T05:11:55.911Z,5.38
2023-05-12T05:16:15.420Z,5.27
2023-05-12T05:20:34.513Z,5.25
2023-05-12T05:24:54.468Z,4.97
2023-05-12T05:29:13.926Z,5.13
2023-05-12T05:33:34.315Z,5.50
2023-05-12T05:37:53.805Z,5.82
2023-05-12T05:42:12.639Z,5.65
2023-05-12T05:46:32.230Z,5.93
2023-05-12T05:50:52.757Z,5.30
2023-05-12T05:55:13.250Z,5.43
2023-05-12T05:59:31.177Z,5.50
2023-05-12T06:03:50.673Z,5.88
2023-05-12T06:08:13.237Z,5.45
2023-05-12T06:12:31.383Z,5.20
2023-05-12T06:16:52.566Z,5.27
2023-05-12T06:21:12.050Z,4.82
2023-05-12T06:25:33.342Z,5.93
2023-05-12T06:29:53.550Z,5.90
2023-05-12T06:34:11.079Z,5.57
2023-05-12T06:38:30.391Z,5.68
2023-05-12T06:42:50.319Z,5.17
2023-05-12T06:47:11.542Z,5.22
2023-05-12T06:51:29.213Z,5.07
2023-05-12T06:55:50.498Z,5.05
2023-05-12T07:00:10.744Z,4.23
2023-05-12T07:04:29.796Z,3.90
2023-05-12T07:08:47.893Z,4.72
2023-05-12T07:13:07.442Z,4.80
2023-05-12T07:17:26.963Z,4.65
2023-05-12T07:21:45.135Z,4.22
2023-05-12T07:26:03.950Z,4.10
2023-05-12T07:30:26.464Z,4.80
2023-05-12T07:34:45.280Z,4.18
2023-05-12T07:39:03.372Z,4.57
2023-05-12T07:43:21.544Z,4.20
2023-05-12T07:47:41.059Z,4.25
2023-05-12T07:52:00.871Z,4.00
2023-05-12T07:56:18.592Z,3.73
2023-05-12T08:00:37.171Z,3.60
2023-05-12T08:04:58.987Z,3.70
2023-05-12T08:09:18.927Z,3.67
2023-05-12T08:13:38.039Z,3.60
2023-05-12T08:17:58.062Z,3.35
2023-05-12T08:22:17.547Z,3.35
2023-05-12T08:26:37.192Z,3.50
2023-05-12T08:30:55.368Z,3.42
2023-05-12T08:35:13.555Z,3.50
2023-05-12T08:39:33.936Z,3.80
2023-05-12T08:43:53.677Z,3.75
2023-05-12T08:48:16.134Z,3.47
2023-05-12T08:52:36.370Z,3.60
2023-05-12T09:01:20.445Z,3.25
2023-05-12T09:05:38.688Z,3.53
2023-05-12T09:09:59.261Z,3.20
2023-05-12T09:14:23.177Z,3.35
2023-05-12T09:18:54.417Z,3.28
2023-05-12T09:23:16.819Z,3.77
2023-05-12T09:27:36.166Z,3.70
2023-05-12T09:31:58.521Z,3.90
2023-05-12T09:36:19.252Z,3.67
2023-05-12T09:40:36.501Z,4.00
2023-05-12T09:44:59.160Z,3.63
2023-05-12T09:49:26.059Z,3.58
2023-05-12T09:53:47.068Z,3.70
2023-05-12T09:58:11.833Z,3.92
2023-05-12T10:02:31.917Z,3.80
2023-05-12T10:06:55.823Z,3.57
2023-05-12T10:11:13.988Z,3.50
2023-05-12T10:15:33.872Z,3.50
2023-05-12T10:19:54.057Z,3.30
2023-05-12T10:24:18.745Z,2.65
2023-05-12T10:28:41.151Z,3.47
2023-05-12T10:32:59.642Z,3.47
2023-05-12T10:37:17.826Z,3.60
2023-05-12T10:41:37.792Z,3.40
2023-05-12T10:46:21.068Z,3.20
2023-05-12T10:50:39.146Z,3.10
2023-05-12T10:55:02.193Z,3.45
2023-05-12T10:59:25.160Z,3.10
2023-05-12T11:03:46.074Z,3.33
2023-05-12T11:08:04.542Z,3.22
2023-05-12T11:12:26.474Z,3.47
2023-05-12T11:16:47.292Z,3.28
2023-05-12T11:21:12.516Z,3.30
2023-05-12T11:25:31.973Z,3.03
2023-05-12T11:29:58.197Z,3.15
2023-05-12T11:34:21.800Z,2.83
2023-05-12T11:38:40.988Z,2.80
2023-05-12T11:43:04.317Z,2.95
2023-05-12T11:47:23.797Z,3.10
2023-05-12T11:51:45.386Z,2.90
2023-05-12T11:56:05.597Z,3.15
2023-05-12T12:00:29.230Z,3.15
2023-05-12T12:04:50.752Z,3.30
2023-05-12T12:09:10.233Z,3.47
2023-05-12T12:13:33.304Z,3.70
2023-05-12T12:17:51.004Z,3.83
2023-05-12T12:22:09.120Z,3.67
2023-05-12T12:26:28.799Z,3.30
2023-05-12T12:30:48.419Z,3.60
2023-05-12T12:35:07.078Z,4.25
2023-05-12T12:39:27.464Z,3.55
2023-05-12T12:43:46.723Z,3.40
2023-05-12T12:48:09.533Z,3.73
2023-05-12T12:52:28.470Z,3.35
2023-05-12T12:56:49.028Z,3.17
2023-05-12T13:01:09.071Z,2.93
2023-05-12T13:05:27.836Z,3.50
2023-05-12T13:09:45.819Z,3.47
2023-05-12T13:14:04.624Z,2.60
2023-05-12T13:18:23.441Z,3.15
2023-05-12T13:22:44.786Z,3.30
2023-05-12T13:27:08.224Z,3.78
2023-05-12T13:31:26.147Z,3.40
2023-05-12T13:35:49.121Z,2.70
2023-05-12T13:40:14.918Z,3.42
2023-05-12T13:44:38.997Z,3.33
2023-05-12T13:48:59.907Z,3.70
2023-05-12T13:53:18.676Z,3.28
2023-05-12T13:57:38.431Z,3.73
2023-05-12T14:01:56.738Z,3.28
2023-05-12T14:06:14.745Z,3.40
2023-05-12T14:10:35.504Z,3.10
2023-05-12T14:14:54.730Z,3.60
2023-05-12T14:19:18.151Z,3.60
2023-05-12T14:23:36.583Z,3.50
2023-05-12T14:27:55.506Z,3.13
2023-05-12T14:32:15.132Z,3.40
2023-05-12T14:36:33.307Z,3.10
2023-05-12T14:40:51.569Z,3.30
2023-05-12T14:45:11.631Z,3.67
2023-05-12T14:49:30.364Z,3.53
2023-05-12T14:53:48.827Z,3.60
2023-05-12T14:58:06.588Z,3.10
2023-05-12T15:02:25.977Z,3.40
2023-05-12T15:06:45.778Z,3.75
2023-05-12T15:11:03.734Z,3.63
2023-05-12T15:15:21.908Z,3.58
2023-05-12T15:19:42.409Z,4.15
2023-05-12T15:24:00.944Z,3.90
2023-05-12T15:28:19.024Z,3.78
2023-05-12T15:32:39.556Z,3.90
2023-05-12T15:36:59.659Z,3.50
2023-05-12T15:41:19.415Z,3.47
2023-05-12T15:45:37.994Z,4.10
2023-05-12T15:49:55.568Z,3.70
2023-05-12T15:54:14.953Z,3.93
2023-05-12T15:58:34.673Z,3.75
2023-05-12T16:02:53.515Z,3.60
2023-05-12T16:07:11.351Z,3.90
2023-05-12T16:11:30.629Z,4.20
2023-05-12T16:15:58.796Z,3.80
2023-05-12T16:20:17.349Z,3.65
2023-05-12T16:24:35.414Z,3.47
2023-05-12T16:28:55.385Z,4.13
2023-05-12T16:33:14.997Z,4.22
2023-05-12T16:37:32.761Z,4.17
2023-05-12T16:41:50.654Z,4.18
2023-05-12T16:46:10.387Z,3.67
2023-05-12T16:50:29.777Z,4.20
2023-05-12T16:54:49.080Z,4.32
2023-05-12T16:59:08.976Z,4.20
2023-05-12T17:03:28.575Z,4.35
2023-05-12T17:07:48.200Z,4.50
2023-05-12T17:12:06.940Z,4.82
2023-05-12T17:16:24.365Z,4.65
2023-05-12T17:20:43.751Z,4.90
2023-05-12T17:25:03.451Z,4.88
2023-05-12T17:29:21.609Z,4.78
2023-05-12T17:33:39.534Z,4.60
2023-05-12T17:37:59.425Z,4.40
2023-05-12T17:42:18.975Z,4.63
2023-05-12T17:46:37.031Z,4.28
2023-05-12T17:50:54.932Z,3.90
2023-05-12T17:55:14.216Z,4.13
2023-05-12T17:59:34.357Z,4.20
2023-05-12T18:03:53.426Z,5.17
2023-05-12T18:08:13.282Z,4.20
2023-05-12T18:12:32.492Z,3.90
2023-05-12T18:16:52.469Z,4.40
2023-05-12T18:21:10.684Z,3.65
2023-05-12T18:25:28.474Z,4.35
2023-05-12T18:29:47.974Z,4.45
2023-05-12T18:34:11.228Z,3.73
2023-05-12T18:38:29.059Z,4.70
2023-05-12T18:42:46.726Z,4.30
2023-05-12T18:47:06.976Z,4.47
2023-05-12T18:51:26.711Z,4.15
2023-05-12T18:55:44.092Z,4.20
2023-05-12T19:00:02.164Z,3.97
2023-05-12T19:04:22.025Z,3.80
2023-05-12T19:08:41.332Z,3.80
2023-05-12T19:12:59.376Z,3.90
2023-05-12T19:17:17.866Z,3.93
2023-05-12T19:21:37.333Z,3.50
2023-05-12T19:25:56.560Z,3.47
2023-05-12T19:30:15.842Z,4.27
2023-05-12T19:34:36.392Z,4.07
2023-05-12T19:38:59.497Z,4.68
2023-05-12T19:43:18.071Z,3.90
2023-05-12T19:47:37.573Z,4.20
2023-05-12T19:51:59.722Z,4.30
2023-05-12T19:56:22.957Z,4.10
2023-05-12T20:00:42.822Z,3.83
2023-05-12T20:05:00.977Z,4.07
2023-05-12T20:09:20.582Z,3.78
2023-05-12T20:13:41.263Z,5.00
2023-05-12T20:18:01.098Z,4.15
2023-05-12T20:22:19.380Z,4.40
2023-05-12T20:26:37.083Z,4.40
2023-05-12T20:30:56.677Z,3.72
2023-05-12T20:35:17.948Z,3.75
2023-05-12T20:39:37.639Z,4.45
2023-05-12T20:43:55.263Z,4.20
2023-05-12T20:48:14.782Z,4.60
2023-05-12T20:52:34.709Z,4.60
2023-05-12T20:56:52.669Z,5.10
2023-05-12T21:01:10.706Z,4.32
2023-05-12T21:05:30.255Z,5.03
2023-05-12T21:09:50.269Z,5.73
2023-05-12T21:14:07.969Z,5.85
2023-05-12T21:18:25.959Z,5.55
2023-05-12T21:22:45.852Z,4.68
2023-05-12T21:27:06.023Z,5.33
2023-05-12T21:31:23.488Z,5.38
2023-05-12T21:35:41.325Z,6.32
2023-05-12T21:40:00.914Z,6.57
2023-05-12T21:44:20.443Z,5.80
2023-05-12T21:48:38.466Z,5.90
2023-05-12T21:52:56.573Z,5.93
2023-05-12T21:57:16.007Z,5.72
2023-05-12T22:01:41.624Z,5.20
2023-05-12T22:05:59.298Z,5.30
2023-05-12T22:10:16.984Z,5.00
2023-05-12T22:14:36.949Z,5.18
2023-05-12T22:18:56.072Z,4.80
2023-05-12T22:23:14.024Z,5.30
2023-05-12T22:27:32.635Z,5.22
2023-05-12T22:31:51.480Z,4.90
2023-05-12T22:36:11.466Z,5.77
2023-05-12T22:40:30.464Z,5.38
2023-05-12T22:44:51.099Z,5.47
2023-05-12T22:49:10.049Z,5.45
2023-05-12T22:53:29.586Z,6.10
2023-05-12T22:57:47.709Z,5.50
2023-05-12T23:02:05.975Z,5.78
2023-05-12T23:06:25.143Z,5.27
2023-05-12T23:10:44.897Z,5.30
2023-05-12T23:15:03.029Z,5.90
2023-05-12T23:19:21.157Z,5.63
2023-05-12T23:23:40.553Z,5.70
2023-05-12T23:28:00.215Z,5.55
2023-05-12T23:32:18.360Z,5.47
2023-05-12T23:36:36.348Z,6.13
2023-05-12T23:40:59.553Z,5.90
2023-05-12T23:45:18.620Z,6.25
2023-05-12T23:49:42.851Z,6.63
2023-05-12T23:54:01.134Z,6.70
2023-05-12T23:58:20.624Z,6.18
